Time;durP1;ratioP1;P1;durP2;ratioP2;P2;SDS_P1;SDS_P2;PMS_P1;PMS_P2;Temp;Humidity;BMP_temperature;BMP_pressure;BME280_temperature;BME280_humidity;BME280_pressure;Samples;Min_cycle;Max_cycle;Signal;HPM_P1;HPM_P2
2024/01/24 00:00:46;;;;;;;3.63;0.80;;;;;;;5.20;92.59;96782.25;2065543;28;20046;-55
2024/01/24 00:01:48;;;;;;;4.28;0.80;;;;;;;5.21;92.43;96778.78;2065568;28;20046;-56
2024/01/24 00:02:49;;;;;;;2.08;0.60;;;;;;;5.22;92.34;96773.63;2064700;28;20050;-55
2024/01/24 00:03:50;;;;;;;2.35;0.70;;;;;;;5.22;92.50;96776.19;2065503;28;20042;-55
2024/01/24 00:04:51;;;;;;;4.22;0.50;;;;;;;5.24;92.08;96781.34;2065241;28;20485;-55
2024/01/24 00:05:53;;;;;;;1.67;0.45;;;;;;;5.27;91.84;96777.00;2065033;28;20058;-56
2024/01/24 00:06:54;;;;;;;2.67;0.70;;;;;;;5.29;91.91;96764.06;2065432;28;20046;-55
2024/01/24 00:07:55;;;;;;;1.50;0.68;;;;;;;5.27;91.88;96758.97;2065127;28;20699;-55
2024/01/24 00:08:56;;;;;;;0.75;0.40;;;;;;;5.37;90.55;96746.78;2065610;28;20061;-55
2024/01/24 00:09:57;;;;;;;0.90;0.30;;;;;;;5.40;90.66;96745.88;2065553;28;20061;-56
2024/01/24 00:10:58;;;;;;;1.92;0.45;;;;;;;5.43;90.53;96754.44;2065542;28;20069;-55
2024/01/24 00:11:59;;;;;;;1.55;0.52;;;;;;;5.42;90.43;96739.84;2064501;28;20061;-55
2024/01/24 00:13:00;;;;;;;1.63;0.40;;;;;;;5.39;90.80;96747.63;2066137;28;20058;-55
2024/01/24 00:14:03;;;;;;;0.98;0.30;;;;;;;5.39;90.79;96736.47;2066906;28;20170;-55
2024/01/24 00:15:04;;;;;;;0.70;0.43;;;;;;;5.44;90.30;96734.69;2066221;28;20384;-55
2024/01/24 00:16:06;;;;;;;1.17;0.50;;;;;;;5.45;90.36;96733.78;2066199;28;20057;-55
2024/01/24 00:17:07;;;;;;;2.63;0.75;;;;;;;5.45;90.10;96733.78;2066500;28;20598;-56
2024/01/24 00:18:08;;;;;;;1.73;0.50;;;;;;;5.48;89.67;96724.31;2066324;28;20062;-56
2024/01/24 00:19:09;;;;;;;4.65;0.85;;;;;;;5.55;88.97;96737.09;2057588;28;20059;-56
2024/01/24 00:20:12;;;;;;;2.03;0.63;;;;;;;5.57;89.04;96740.50;2057876;28;20498;-55
2024/01/24 00:21:13;;;;;;;1.88;0.60;;;;;;;5.57;89.38;96735.34;2066227;28;20474;-55
2024/01/24 00:22:14;;;;;;;2.03;0.50;;;;;;;5.55;89.35;96737.09;2066384;28;20058;-55
2024/01/24 00:23:15;;;;;;;1.25;0.57;;;;;;;5.50;89.17;96725.13;2066420;28;20076;-55
2024/01/24 00:24:16;;;;;;;1.08;0.60;;;;;;;5.55;88.83;96735.34;2066741;28;20049;-55
2024/01/24 00:25:17;;;;;;;1.38;0.55;;;;;;;5.55;88.59;96734.50;2066358;28;20049;-55
2024/01/24 00:26:19;;;;;;;1.27;0.45;;;;;;;5.64;87.99;96716.31;2065699;28;20042;-55
2024/01/24 00:27:20;;;;;;;3.30;0.90;;;;;;;5.69;87.53;96724.81;2066746;28;20042;-55
2024/01/24 00:28:21;;;;;;;2.00;0.70;;;;;;;5.69;87.91;96733.44;2066595;28;20466;-55
2024/01/24 00:29:22;;;;;;;0.40;0.30;;;;;;;5.73;86.97;96734.22;2049791;29;20055;-55
2024/01/24 00:30:23;;;;;;;1.33;0.60;;;;;;;5.74;87.01;96733.34;2050384;28;20047;-55
2024/01/24 00:31:24;;;;;;;2.13;0.52;;;;;;;5.76;87.08;96731.59;2066665;28;20042;-55
2024/01/24 00:32:25;;;;;;;1.27;0.47;;;;;;;5.75;86.94;96730.75;2066285;28;20054;-55
2024/01/24 00:33:27;;;;;;;1.63;0.82;;;;;;;5.78;86.33;96735.00;2066304;28;20054;-55
2024/01/24 00:34:29;;;;;;;2.15;0.60;;;;;;;5.79;86.50;96735.84;2056026;28;20046;-55
2024/01/24 00:35:30;;;;;;;0.90;0.43;;;;;;;5.80;85.97;96746.16;2058084;28;20047;-55
2024/01/24 00:36:32;;;;;;;1.25;0.50;;;;;;;5.82;86.01;96749.53;2066770;28;20467;-55
2024/01/24 00:37:33;;;;;;;0.28;0.20;;;;;;;5.80;85.54;96722.06;2066724;28;20046;-55
2024/01/24 00:38:34;;;;;;;0.30;0.20;;;;;;;5.90;84.56;96736.50;2066678;28;20042;-55
2024/01/24 00:39:35;;;;;;;2.22;0.63;;;;;;;5.91;85.01;96733.91;2066767;28;20124;-55
2024/01/24 00:40:37;;;;;;;1.95;0.52;;;;;;;5.95;84.71;96729.59;2066796;28;20058;-55
2024/01/24 00:41:40;;;;;;;3.92;0.80;;;;;;;5.93;84.88;96728.72;2066025;28;20054;-55
2024/01/24 00:42:42;;;;;;;3.97;0.95;;;;;;;5.89;85.00;96724.50;2066763;28;20051;-55
2024/01/24 00:43:43;;;;;;;2.25;0.60;;;;;;;5.92;84.44;96732.19;2065833;28;20054;-55
2024/01/24 00:44:45;;;;;;;0.77;0.45;;;;;;;5.99;84.11;96728.66;2066743;28;20046;-55
2024/01/24 00:45:46;;;;;;;3.72;0.70;;;;;;;6.05;83.55;96736.28;2058080;28;20054;-55
2024/01/24 00:46:47;;;;;;;1.02;0.35;;;;;;;6.08;83.32;96728.50;2057441;28;20055;-55
2024/01/24 00:47:48;;;;;;;2.58;0.50;;;;;;;6.12;83.26;96744.75;2066552;28;20046;-55
2024/01/24 00:48:49;;;;;;;6.72;0.70;;;;;;;6.15;82.98;96748.16;2066255;28;20038;-56
2024/01/24 00:49:50;;;;;;;4.25;0.60;;;;;;;6.19;82.35;96754.09;2066220;28;20050;-54
2024/01/24 00:50:53;;;;;;;1.83;0.52;;;;;;;6.24;81.89;96744.53;2066487;28;20050;-55
2024/01/24 00:51:54;;;;;;;2.13;0.70;;;;;;;6.26;82.23;96753.09;2065918;28;20054;-56
2024/01/24 00:52:55;;;;;;;2.47;0.57;;;;;;;6.30;81.68;96738.41;2066521;28;20061;-55
2024/01/24 00:53:56;;;;;;;2.13;0.57;;;;;;;6.32;81.30;96740.09;2066298;28;20050;-56
2024/01/24 00:54:57;;;;;;;1.83;0.60;;;;;;;6.34;80.62;96727.19;2057204;28;20055;-56
2024/01/24 00:55:58;;;;;;;3.45;0.50;;;;;;;6.41;81.25;96736.47;2049975;28;20511;-55
2024/01/24 00:56:59;;;;;;;1.15;0.55;;;;;;;6.49;79.62;96726.00;2057950;28;20043;-55
2024/01/24 00:58:01;;;;;;;2.90;0.40;;;;;;;6.56;79.52;96730.19;2066056;28;20054;-55
2024/01/24 00:59:02;;;;;;;1.27;0.30;;;;;;;6.57;78.88;96734.47;2066090;28;20050;-55
2024/01/24 01:00:06;;;;;;;0.93;0.40;;;;;;;6.65;78.31;96719.66;2066298;28;20474;-57
2024/01/24 01:01:07;;;;;;;0.82;0.20;;;;;;;6.75;78.18;96716.03;2065876;28;20058;-55
2024/01/24 01:02:08;;;;;;;0.47;0.40;;;;;;;6.82;77.49;96730.50;2066575;28;20054;-55
2024/01/24 01:03:09;;;;;;;0.85;0.30;;;;;;;6.86;77.48;96739.03;2066604;28;20046;-55
2024/01/24 01:04:10;;;;;;;1.73;0.40;;;;;;;6.81;77.96;96709.88;2066694;28;20398;-55
2024/01/24 01:05:11;;;;;;;1.05;0.30;;;;;;;6.85;78.20;96716.69;2066399;28;20035;-55
2024/01/24 01:06:12;;;;;;;2.83;0.47;;;;;;;6.83;77.99;96713.28;2066386;28;20046;-55
2024/01/24 01:07:13;;;;;;;5.50;0.47;;;;;;;6.81;77.94;96697.81;2066453;28;20398;-55
2024/01/24 01:08:14;;;;;;;2.45;0.30;;;;;;;6.84;78.50;96700.34;2057464;28;20046;-57
2024/01/24 01:09:15;;;;;;;0.95;0.28;;;;;;;6.94;78.22;96701.00;2057555;28;20062;-56
2024/01/24 01:10:16;;;;;;;2.60;0.60;;;;;;;6.96;78.33;96703.56;2066582;28;20471;-55
2024/01/24 01:11:18;;;;;;;2.38;0.50;;;;;;;6.98;78.55;96694.06;2066456;28;20054;-55
2024/01/24 01:12:19;;;;;;;1.38;0.38;;;;;;;6.96;78.66;96694.06;2066172;28;20057;-55
2024/01/24 01:13:20;;;;;;;1.60;0.38;;;;;;;7.07;78.00;96694.69;2066185;28;20065;-55
2024/01/24 01:14:21;;;;;;;0.85;0.22;;;;;;;7.09;77.98;96688.66;2066655;28;20042;-55
2024/01/24 01:15:24;;;;;;;1.48;0.50;;;;;;;7.10;77.86;96682.59;2066683;28;20038;-55
2024/01/24 01:16:25;;;;;;;1.67;0.50;;;;;;;7.12;78.02;96699.75;2066337;28;20399;-55
2024/01/24 01:17:26;;;;;;;0.40;0.30;;;;;;;7.10;78.11;96688.59;2066513;28;20034;-55
2024/01/24 01:18:27;;;;;;;1.70;0.35;;;;;;;7.13;78.16;96691.09;2066396;28;20043;-55
2024/01/24 01:19:28;;;;;;;0.93;0.22;;;;;;;7.20;77.47;96695.25;2066533;28;20482;-55
2024/01/24 01:20:31;;;;;;;1.38;0.50;;;;;;;7.18;77.80;96691.00;2066221;28;20050;-55
2024/01/24 01:21:32;;;;;;;0.82;0.30;;;;;;;7.19;78.05;96680.66;2066555;28;20061;-56
2024/01/24 01:22:33;;;;;;;2.47;0.52;;;;;;;7.24;77.67;96693.44;2066433;28;20049;-55
2024/01/24 01:23:34;;;;;;;2.42;0.35;;;;;;;7.27;77.62;96667.53;2066262;28;20046;-55
2024/01/24 01:24:36;;;;;;;2.50;0.30;;;;;;;7.25;77.69;96677.06;2065950;28;20715;-56
2024/01/24 01:25:37;;;;;;;1.25;0.50;;;;;;;7.27;77.14;96672.69;2066452;28;20054;-55
2024/01/24 01:26:39;;;;;;;0.60;0.40;;;;;;;7.26;77.47;96669.28;2065576;28;20058;-55
2024/01/24 01:27:40;;;;;;;1.25;0.50;;;;;;;7.30;77.28;96657.16;2065612;28;20412;-55
2024/01/24 01:28:41;;;;;;;1.33;0.55;;;;;;;7.29;77.40;96651.09;2066152;28;20076;-56
2024/01/24 01:29:42;;;;;;;3.70;0.63;;;;;;;7.29;77.82;96655.44;2065266;28;20057;-55
2024/01/24 01:30:43;;;;;;;0.75;0.38;;;;;;;7.39;76.81;96648.31;2066088;28;20057;-55
2024/01/24 01:31:44;;;;;;;1.48;0.47;;;;;;;7.42;77.03;96656.84;2065779;28;20065;-55
2024/01/24 01:32:45;;;;;;;1.88;0.60;;;;;;;7.43;77.42;96668.03;2065950;28;20073;-58
2024/01/24 01:33:47;;;;;;;1.27;0.68;;;;;;;7.45;76.82;96655.91;2065576;28;20050;-55
2024/01/24 01:34:48;;;;;;;1.35;0.40;;;;;;;7.47;76.75;96659.31;2064978;28;20058;-54
2024/01/24 01:35:49;;;;;;;1.10;0.40;;;;;;;7.47;77.09;96664.50;2066254;28;20478;-55
2024/01/24 01:36:50;;;;;;;2.58;0.50;;;;;;;7.45;76.97;96654.19;2065646;28;20050;-55
2024/01/24 01:37:51;;;;;;;1.70;0.30;;;;;;;7.42;77.24;96648.25;2065808;28;20054;-55
2024/01/24 01:38:52;;;;;;;1.38;0.40;;;;;;;7.41;77.44;96641.38;2065601;28;20058;-55
2024/01/24 01:39:53;;;;;;;1.40;0.50;;;;;;;7.43;77.06;96637.88;2065681;28;20042;-56
2024/01/24 01:40:54;;;;;;;1.55;0.30;;;;;;;7.44;77.00;96649.06;2066134;28;20402;-54
2024/01/24 01:41:55;;;;;;;0.98;0.50;;;;;;;7.45;77.26;96641.25;2065534;28;20042;-55
2024/01/24 01:42:56;;;;;;;0.30;0.28;;;;;;;7.44;77.09;96642.16;2064979;28;20058;-55
2024/01/24 01:43:58;;;;;;;0.68;0.30;;;;;;;7.40;77.60;96644.84;2065823;28;20046;-55
2024/01/24 01:44:59;;;;;;;2.60;0.52;;;;;;;7.42;77.10;96643.91;2065238;28;20062;-55
2024/01/24 01:46:05;;;;;;;1.80;0.50;;;;;;;7.47;76.75;96643.81;2065550;28;20054;-55
2024/01/24 01:47:06;;;;;;;2.88;0.63;;;;;;;7.48;77.31;96650.66;2057362;28;20070;-55
2024/01/24 01:48:07;;;;;;;1.50;0.60;;;;;;;7.45;77.01;96654.19;2048767;29;20066;-55
2024/01/24 01:49:08;;;;;;;1.17;0.47;;;;;;;7.45;76.57;96641.25;2049174;28;20059;-55
2024/01/24 01:50:10;;;;;;;1.77;0.40;;;;;;;7.46;77.00;96648.13;2057151;28;20510;-55
2024/01/24 01:51:12;;;;;;;1.27;0.40;;;;;;;7.48;76.73;96646.38;2065441;28;20054;-55
2024/01/24 01:52:13;;;;;;;1.33;0.45;;;;;;;7.46;76.68;96647.28;2056106;28;20054;-55
2024/01/24 01:53:15;;;;;;;0.77;0.40;;;;;;;7.44;76.93;96646.47;2048594;28;20059;-55
2024/01/24 01:54:17;;;;;;;1.85;0.40;;;;;;;7.41;76.70;96629.31;2057080;28;20050;-55
2024/01/24 01:55:18;;;;;;;2.53;0.40;;;;;;;7.44;77.03;96620.63;2065767;28;20042;-55
2024/01/24 01:56:20;;;;;;;0.60;0.40;;;;;;;7.45;76.05;96622.31;2065429;28;20057;-55
2024/01/24 01:57:21;;;;;;;1.77;0.45;;;;;;;7.39;77.26;96620.75;2065757;28;20486;-55
2024/01/24 01:58:22;;;;;;;2.60;0.65;;;;;;;7.53;76.66;96616.97;2048982;29;20047;-54
2024/01/24 01:59:23;;;;;;;1.55;0.40;;;;;;;7.53;76.21;96612.63;2041863;28;20051;-55
2024/01/24 02:00:25;;;;;;;1.13;0.40;;;;;;;7.64;75.88;96602.88;2040983;29;20055;-55
2024/01/24 02:01:26;;;;;;;1.25;0.30;;;;;;;7.62;76.44;96621.91;2049244;29;20051;-55
2024/01/24 02:02:27;;;;;;;1.17;0.40;;;;;;;7.64;76.18;96602.88;2048468;29;20055;-56
2024/01/24 02:03:28;;;;;;;1.20;0.40;;;;;;;7.68;76.29;96616.59;2056602;28;20438;-55
2024/01/24 02:04:29;;;;;;;2.00;0.40;;;;;;;7.65;76.31;96614.09;2056727;28;20054;-55
2024/01/24 02:05:30;;;;;;;0.68;0.32;;;;;;;7.71;75.97;96617.34;2049270;28;20091;-55
2024/01/24 02:06:31;;;;;;;0.90;0.30;;;;;;;7.70;76.03;96605.31;2048868;28;20062;-55
2024/01/24 02:07:33;;;;;;;1.30;0.40;;;;;;;7.67;76.62;96620.03;2065621;28;20480;-55
2024/01/24 02:08:35;;;;;;;1.42;0.30;;;;;;;7.64;76.83;96610.63;2065243;28;20054;-55
2024/01/24 02:09:36;;;;;;;0.85;0.35;;;;;;;7.66;76.78;96618.34;2065628;28;20046;-54
2024/01/24 02:10:38;;;;;;;1.63;0.47;;;;;;;7.64;76.71;96608.03;2065612;28;20474;-55
2024/01/24 02:11:40;;;;;;;0.90;0.55;;;;;;;7.67;77.19;96604.53;2064751;28;20051;-55
2024/01/24 02:12:41;;;;;;;1.40;0.38;;;;;;;7.68;77.51;96609.66;2056850;28;20059;-55
2024/01/24 02:13:42;;;;;;;1.02;0.25;;;;;;;7.72;77.29;96600.97;2057072;28;20039;-55
2024/01/24 02:14:43;;;;;;;2.33;0.57;;;;;;;7.81;76.83;96606.78;2065129;28;20054;-55
2024/01/24 02:15:44;;;;;;;1.08;0.25;;;;;;;7.77;77.89;96606.00;2065708;28;20474;-55
2024/01/24 02:16:45;;;;;;;0.95;0.32;;;;;;;7.75;77.82;96594.81;2065631;28;20046;-56
2024/01/24 02:17:46;;;;;;;2.90;0.40;;;;;;;7.87;78.09;96612.63;2065803;28;20046;-55
2024/01/24 02:18:48;;;;;;;1.02;0.20;;;;;;;7.92;77.76;96600.41;2065719;28;20414;-55
2024/01/24 02:19:49;;;;;;;0.20;0.20;;;;;;;7.93;77.95;96606.44;2064856;28;20062;-55
2024/01/24 02:20:51;;;;;;;1.05;0.30;;;;;;;8.02;77.94;96600.16;2065378;28;20065;-55
2024/01/24 02:21:52;;;;;;;5.07;0.70;;;;;;;7.97;77.96;96592.53;2065638;28;20034;-54
2024/01/24 02:22:53;;;;;;;1.92;0.60;;;;;;;8.07;78.01;96590.53;2065617;28;20058;-55
2024/01/24 02:23:54;;;;;;;3.10;0.60;;;;;;;8.03;78.62;96599.28;2065919;28;20046;-55
2024/01/24 02:24:56;;;;;;;2.53;0.40;;;;;;;8.01;78.19;96598.47;2049079;29;20124;-55
2024/01/24 02:25:57;;;;;;;2.78;0.50;;;;;;;7.96;78.75;96567.53;2049077;28;20408;-55
2024/01/24 02:26:58;;;;;;;1.95;0.30;;;;;;;8.03;78.57;96579.44;2064997;28;20050;-55
2024/01/24 02:27:59;;;;;;;1.65;0.45;;;;;;;8.06;77.82;96587.09;2065887;28;20038;-55
2024/01/24 02:29:00;;;;;;;1.90;0.50;;;;;;;8.10;77.91;96580.97;2064892;28;20054;-55
2024/01/24 02:30:02;;;;;;;0.65;0.35;;;;;;;8.11;78.74;96581.81;2065630;28;20042;-56
2024/01/24 02:31:03;;;;;;;0.77;0.40;;;;;;;8.04;78.24;96570.75;2064956;28;20406;-55
2024/01/24 02:32:04;;;;;;;7.78;0.43;;;;;;;8.11;77.69;96574.88;2065650;28;20050;-55
2024/01/24 02:33:05;;;;;;;1.13;0.30;;;;;;;8.09;78.41;96571.47;2064989;28;20058;-55
2024/01/24 02:34:06;;;;;;;2.05;0.43;;;;;;;7.99;78.64;96575.22;2064730;28;20474;-55
2024/01/24 02:35:08;;;;;;;3.33;0.50;;;;;;;7.95;78.74;96578.78;2064544;28;20054;-55
2024/01/24 02:36:15;;;;;;;3.60;0.43;;;;;;;7.90;78.90;96578.06;2065591;28;20525;-55
2024/01/24 02:37:19;;;;;;;2.10;0.35;;;;;;;7.87;78.98;96576.41;2065291;28;20503;-55
2024/01/24 02:38:20;;;;;;;0.70;0.30;;;;;;;7.89;79.41;96574.63;2065598;28;20053;-55
2024/01/24 02:39:21;;;;;;;1.63;0.30;;;;;;;7.90;79.44;96570.31;2065432;28;20049;-55
2024/01/24 02:40:22;;;;;;;1.20;0.38;;;;;;;7.85;79.55;96567.84;2065126;28;20057;-55
2024/01/24 02:41:24;;;;;;;1.33;0.60;;;;;;;7.82;79.55;96546.41;2065029;28;20053;-55
2024/01/24 02:42:25;;;;;;;3.38;0.43;;;;;;;7.85;79.15;96562.66;2065930;28;20135;-55
2024/01/24 02:43:26;;;;;;;0.70;0.35;;;;;;;7.85;79.40;96544.56;2064866;28;20057;-55
2024/01/24 02:44:27;;;;;;;2.63;0.47;;;;;;;7.86;79.77;96559.22;2065656;28;20038;-55
2024/01/24 02:45:28;;;;;;;3.67;0.82;;;;;;;7.88;79.61;96556.56;2065736;28;20398;-54
2024/01/24 02:46:29;;;;;;;2.08;0.63;;;;;;;7.86;79.87;96550.63;2064859;28;20053;-55
2024/01/24 02:47:30;;;;;;;0.68;0.30;;;;;;;7.87;79.74;96549.72;2065662;28;20049;-54
2024/01/24 02:48:31;;;;;;;0.40;0.28;;;;;;;7.91;79.24;96552.19;2065131;28;20505;-55
2024/01/24 02:49:32;;;;;;;1.60;0.60;;;;;;;7.87;80.11;96566.06;2056816;28;20055;-55
2024/01/24 02:50:33;;;;;;;1.88;0.43;;;;;;;7.89;79.65;96564.28;2056363;28;20051;-55
2024/01/24 02:51:35;;;;;;;2.20;0.45;;;;;;;7.90;79.72;96565.13;2065975;28;20038;-55
2024/01/24 02:52:36;;;;;;;2.58;0.30;;;;;;;7.99;79.26;96567.47;2065893;28;20062;-55
2024/01/24 02:53:38;;;;;;;2.47;0.60;;;;;;;8.03;79.24;96545.81;2066513;28;20087;-55
2024/01/24 02:54:41;;;;;;;2.03;0.50;;;;;;;8.12;78.87;96565.38;2065614;28;20046;-55
2024/01/24 02:55:42;;;;;;;3.13;0.60;;;;;;;8.16;78.49;96574.75;2065632;28;20046;-55
2024/01/24 02:56:44;;;;;;;2.13;0.40;;;;;;;8.16;77.93;96570.44;2065409;28;20042;-55
2024/01/24 02:57:45;;;;;;;0.70;0.40;;;;;;;8.21;78.09;96579.81;2056909;28;20503;-55
2024/01/24 02:58:46;;;;;;;1.27;0.50;;;;;;;8.23;77.38;96557.31;2056548;28;20046;-54
2024/01/24 02:59:47;;;;;;;2.10;0.52;;;;;;;8.27;77.93;96570.13;2056901;28;20046;-55
2024/01/24 03:00:48;;;;;;;1.80;0.55;;;;;;;8.26;77.96;96573.63;2056773;28;20384;-55
2024/01/24 03:01:49;;;;;;;0.28;0.15;;;;;;;8.22;77.85;96556.47;2065154;28;20058;-54
2024/01/24 03:02:51;;;;;;;0.47;0.25;;;;;;;8.22;77.51;96564.22;2065686;28;20042;-55
2024/01/24 03:03:52;;;;;;;0.90;0.30;;;;;;;8.20;77.79;96558.25;2064725;28;20062;-55
2024/01/24 03:04:53;;;;;;;1.52;0.40;;;;;;;8.21;77.91;96556.53;2065525;28;20047;-55
2024/01/24 03:05:54;;;;;;;3.20;0.40;;;;;;;8.17;77.92;96551.41;2064468;28;20058;-55
2024/01/24 03:06:55;;;;;;;1.52;0.60;;;;;;;8.16;78.41;96569.59;2065328;28;20058;-55
2024/01/24 03:07:57;;;;;;;1.05;0.40;;;;;;;8.09;78.04;96553.38;2065390;28;20046;-55
2024/01/24 03:08:59;;;;;;;3.15;0.70;;;;;;;8.10;78.48;96555.09;2065484;28;20038;-55
2024/01/24 03:10:00;;;;;;;0.77;0.40;;;;;;;8.11;78.61;96553.34;2065419;28;20046;-54
2024/01/24 03:11:01;;;;;;;1.00;0.30;;;;;;;8.13;78.68;96557.59;2065236;28;20054;-55
2024/01/24 03:12:02;;;;;;;0.57;0.40;;;;;;;8.13;78.22;96559.34;2064227;28;20058;-55
2024/01/24 03:13:03;;;;;;;0.50;0.30;;;;;;;8.10;78.87;96557.69;2065392;28;20471;-55
2024/01/24 03:14:05;;;;;;;1.02;0.52;;;;;;;8.04;79.49;96557.00;2065441;28;20043;-55
2024/01/24 03:15:06;;;;;;;0.82;0.20;;;;;;;8.00;79.04;96540.72;2065612;28;20057;-55
2024/01/24 03:16:08;;;;;;;1.80;0.22;;;;;;;8.10;78.95;96530.94;2065581;28;20046;-55
2024/01/24 03:17:09;;;;;;;2.28;0.45;;;;;;;8.12;79.07;96550.69;2065035;28;20494;-55
2024/01/24 03:18:10;;;;;;;2.25;0.47;;;;;;;8.09;79.38;96537.00;2064819;28;20070;-55
2024/01/24 03:19:11;;;;;;;1.17;0.20;;;;;;;8.07;79.63;96551.72;2064845;28;20113;-55
2024/01/24 03:20:13;;;;;;;2.53;0.57;;;;;;;8.13;79.39;96536.06;2065270;28;20050;-55
2024/01/24 03:21:15;;;;;;;2.13;0.45;;;;;;;8.14;78.86;96537.72;2065237;28;20050;-55
2024/01/24 03:22:16;;;;;;;0.50;0.25;;;;;;;8.16;79.08;96535.97;2064772;28;20043;-55
2024/01/24 03:23:18;;;;;;;2.88;0.50;;;;;;;8.24;78.61;96533.16;2064575;28;20058;-55
2024/01/24 03:24:19;;;;;;;1.20;0.30;;;;;;;8.28;78.54;96550.25;2064881;28;20046;-55
2024/01/24 03:25:20;;;;;;;1.17;0.30;;;;;;;8.26;78.56;96537.38;2065041;28;20497;-55
2024/01/24 03:26:21;;;;;;;0.63;0.22;;;;;;;8.32;78.44;96541.53;2065185;28;20049;-55
2024/01/24 03:27:22;;;;;;;2.33;0.30;;;;;;;8.32;78.57;96538.94;2064565;28;20058;-55
2024/01/24 03:28:23;;;;;;;0.93;0.40;;;;;;;8.33;78.56;96532.88;2064672;28;20475;-56
2024/01/24 03:29:24;;;;;;;0.93;0.40;;;;;;;8.30;79.09;96541.56;2064267;28;20054;-55
2024/01/24 03:30:25;;;;;;;0.43;0.20;;;;;;;8.31;78.77;96524.28;2065435;28;20034;-55
2024/01/24 03:31:26;;;;;;;0.47;0.30;;;;;;;8.44;78.37;96532.56;2064708;28;20039;-54
2024/01/24 03:32:27;;;;;;;0.90;0.40;;;;;;;8.41;78.41;96530.09;2065088;28;20050;-54
2024/01/24 03:33:28;;;;;;;0.77;0.28;;;;;;;8.37;78.46;96540.50;2065248;28;20045;-54
2024/01/24 03:34:30;;;;;;;1.45;0.50;;;;;;;8.35;78.83;96547.47;2064503;28;20132;-55
2024/01/24 03:35:31;;;;;;;1.20;0.40;;;;;;;8.35;78.96;96551.78;2065203;28;20046;-54
2024/01/24 03:36:32;;;;;;;1.27;0.40;;;;;;;8.37;78.82;96540.50;2064991;28;20039;-54
2024/01/24 03:37:33;;;;;;;1.73;0.40;;;;;;;8.43;79.12;96541.25;2064850;28;20038;-55
2024/01/24 03:38:34;;;;;;;0.95;0.32;;;;;;;8.46;78.81;96534.22;2065310;28;20039;-55
2024/01/24 03:39:35;;;;;;;2.35;0.50;;;;;;;8.50;78.80;96535.84;2065564;28;20039;-55
2024/01/24 03:40:37;;;;;;;2.33;0.40;;;;;;;8.51;78.47;96524.56;2065241;28;20391;-55
2024/01/24 03:41:38;;;;;;;0.63;0.40;;;;;;;8.56;78.75;96529.63;2065253;28;20054;-55
2024/01/24 03:42:39;;;;;;;0.98;0.28;;;;;;;8.56;78.96;96525.28;2065387;28;20057;-55
2024/01/24 03:43:40;;;;;;;1.02;0.30;;;;;;;8.54;79.16;96523.63;2048532;29;20589;-55
2024/01/24 03:44:41;;;;;;;1.33;0.40;;;;;;;8.60;79.47;96532.06;2048415;29;20066;-55
2024/01/24 03:45:42;;;;;;;0.68;0.32;;;;;;;8.69;79.36;96527.50;2065341;28;20054;-55
2024/01/24 03:46:43;;;;;;;0.88;0.40;;;;;;;8.71;78.69;96538.63;2065385;28;20065;-55
2024/01/24 03:47:45;;;;;;;1.45;0.60;;;;;;;8.71;78.52;96538.63;2065327;28;20065;-55
2024/01/24 03:48:46;;;;;;;0.65;0.15;;;;;;;8.71;79.10;96523.94;2066718;28;20054;-55
2024/01/24 03:49:47;;;;;;;0.95;0.20;;;;;;;8.81;78.50;96538.31;2066573;28;20054;-55
2024/01/24 03:50:48;;;;;;;0.40;0.30;;;;;;;8.89;78.19;96540.66;2065771;28;20061;-55
2024/01/24 03:51:49;;;;;;;2.08;0.40;;;;;;;8.98;78.42;96527.44;2066320;28;20065;-55
2024/01/24 03:52:50;;;;;;;1.67;0.40;;;;;;;9.09;78.09;96537.44;2065838;28;20085;-55
2024/01/24 03:53:51;;;;;;;1.65;0.25;;;;;;;9.07;78.15;96533.22;2066072;28;20054;-54
2024/01/24 03:54:52;;;;;;;1.15;0.25;;;;;;;9.04;78.32;96540.19;2066641;28;20046;-55
2024/01/24 03:55:53;;;;;;;0.80;0.30;;;;;;;8.99;78.51;96529.09;2066643;28;20046;-55
2024/01/24 03:56:55;;;;;;;1.83;0.60;;;;;;;9.02;78.35;96525.56;2066996;28;20042;-56
2024/01/24 03:57:56;;;;;;;0.45;0.20;;;;;;;9.04;78.15;96519.44;2066038;28;20054;-55
2024/01/24 03:58:57;;;;;;;1.10;0.50;;;;;;;9.05;78.46;96531.50;2066124;28;20043;-55
2024/01/24 03:59:58;;;;;;;3.33;0.60;;;;;;;9.03;78.62;96509.13;2066244;28;20050;-55
2024/01/24 04:00:59;;;;;;;0.70;0.25;;;;;;;9.15;78.16;96524.28;2066255;28;20486;-56
2024/01/24 04:02:00;;;;;;;2.13;0.30;;;;;;;9.16;78.15;96520.78;2066091;28;20058;-55
2024/01/24 04:03:02;;;;;;;1.25;0.38;;;;;;;9.25;77.60;96514.47;2066855;28;20038;-55
2024/01/24 04:04:03;;;;;;;0.47;0.30;;;;;;;9.27;77.72;96516.09;2066795;28;20073;-55
2024/01/24 04:05:04;;;;;;;0.93;0.40;;;;;;;9.36;77.68;96517.53;2057999;28;20529;-55
2024/01/24 04:06:05;;;;;;;2.45;0.45;;;;;;;9.45;77.05;96529.31;2057400;28;20051;-54
2024/01/24 04:07:06;;;;;;;0.43;0.25;;;;;;;9.52;77.41;96515.25;2065783;28;20058;-55
2024/01/24 04:08:08;;;;;;;1.02;0.55;;;;;;;9.60;76.92;96517.59;2066131;28;20058;-55
2024/01/24 04:09:09;;;;;;;0.63;0.30;;;;;;;9.61;77.10;96521.88;2066320;28;20054;-55
2024/01/24 04:10:10;;;;;;;0.85;0.40;;;;;;;9.55;76.69;96522.09;2066387;28;20057;-55
2024/01/24 04:11:11;;;;;;;1.23;0.40;;;;;;;9.49;77.12;96518.81;2066541;28;20042;-55
2024/01/24 04:12:12;;;;;;;0.50;0.10;;;;;;;9.52;77.07;96498.88;2065333;28;20390;-55
2024/01/24 04:13:14;;;;;;;0.43;0.30;;;;;;;9.52;77.03;96468.59;2066117;28;20054;-55
2024/01/24 04:14:15;;;;;;;0.65;0.20;;;;;;;9.62;77.28;96508.84;2066314;28;20053;-55
2024/01/24 04:15:16;;;;;;;1.75;0.52;;;;;;;9.62;77.66;96521.81;2066697;28;20049;-55
2024/01/24 04:16:17;;;;;;;1.42;0.35;;;;;;;9.59;77.78;96495.13;2065749;28;20065;-55
2024/01/24 04:17:18;;;;;;;0.95;0.30;;;;;;;9.60;76.97;96505.47;2065891;28;20053;-55
2024/01/24 04:18:20;;;;;;;1.45;0.30;;;;;;;9.64;77.09;96496.66;2066596;28;20047;-55
2024/01/24 04:19:21;;;;;;;1.00;0.40;;;;;;;9.65;77.38;96498.38;2066578;28;20590;-55
2024/01/24 04:20:22;;;;;;;1.17;0.25;;;;;;;9.66;77.72;96488.84;2066290;28;20062;-55
2024/01/24 04:21:23;;;;;;;0.95;0.35;;;;;;;9.67;77.48;96485.34;2065949;28;20061;-55
2024/01/24 04:22:24;;;;;;;0.32;0.10;;;;;;;9.70;77.15;96506.84;2066050;28;20046;-55
2024/01/24 04:23:25;;;;;;;0.77;0.35;;;;;;;9.74;77.44;96499.78;2066769;28;20467;-55
2024/01/24 04:24:27;;;;;;;0.68;0.30;;;;;;;9.90;76.81;96493.13;2066207;28;20054;-55
2024/01/24 04:25:28;;;;;;;1.33;0.30;;;;;;;9.89;76.57;96501.84;2066540;28;20038;-55
2024/01/24 04:26:29;;;;;;;2.00;0.32;;;;;;;9.98;76.65;96486.81;2065986;28;20068;-55
2024/01/24 04:27:30;;;;;;;0.32;0.30;;;;;;;9.99;76.21;96485.91;2065853;28;20050;-55
2024/01/24 04:28:31;;;;;;;1.65;0.40;;;;;;;10.10;76.64;96497.59;2066054;28;20446;-55
2024/01/24 04:29:32;;;;;;;0.30;0.30;;;;;;;10.11;75.50;96470.75;2065626;28;20054;-55
2024/01/24 04:30:33;;;;;;;1.17;0.20;;;;;;;10.14;75.42;96490.53;2065876;28;20054;-55
2024/01/24 04:31:34;;;;;;;0.85;0.38;;;;;;;10.14;75.63;96443.81;2066125;28;20042;-55
2024/01/24 04:32:35;;;;;;;2.08;0.60;;;;;;;10.16;75.99;96465.38;2066019;28;20046;-55
2024/01/24 04:33:37;;;;;;;2.72;0.20;;;;;;;10.11;76.17;96496.69;2065331;28;20084;-55
2024/01/24 04:34:38;;;;;;;2.30;0.40;;;;;;;10.15;75.88;96487.03;2065589;28;20046;-54
2024/01/24 04:35:39;;;;;;;2.30;0.60;;;;;;;10.30;75.06;96424.19;2065342;28;20051;-55
2024/01/24 04:36:41;;;;;;;0.65;0.30;;;;;;;10.33;75.25;96491.56;2057888;28;20051;-55
2024/01/24 04:37:42;;;;;;;0.60;0.40;;;;;;;10.30;75.85;96496.88;2057392;28;20051;-55
2024/01/24 04:38:43;;;;;;;2.50;0.60;;;;;;;10.32;75.80;96470.88;2065766;28;20058;-55
2024/01/24 04:39:44;;;;;;;0.70;0.40;;;;;;;10.27;76.18;96463.25;2066432;28;20053;-56
2024/01/24 04:40:45;;;;;;;0.38;0.22;;;;;;;10.33;75.90;96472.53;2066411;28;20069;-55
2024/01/24 04:41:47;;;;;;;0.60;0.28;;;;;;;10.27;75.73;96476.22;2066286;28;20045;-55
2024/01/24 04:42:48;;;;;;;1.13;0.40;;;;;;;10.32;75.67;96483.84;2057097;28;20431;-55
2024/01/24 04:43:49;;;;;;;0.55;0.22;;;;;;;10.42;75.09;96479.13;2057531;28;20046;-55
2024/01/24 04:44:50;;;;;;;1.83;0.90;;;;;;;10.36;75.42;96494.03;2065487;28;20058;-55
2024/01/24 04:45:51;;;;;;;1.27;0.30;;;;;;;10.44;75.60;96485.94;2066372;28;20450;-55
2024/01/24 04:46:52;;;;;;;1.67;0.50;;;;;;;10.41;75.75;96473.09;2066408;28;20045;-55
2024/01/24 04:47:53;;;;;;;0.90;0.30;;;;;;;10.34;76.30;96505.38;2066086;28;20054;-55
2024/01/24 04:48:54;;;;;;;0.68;0.30;;;;;;;10.32;76.02;96497.66;2066499;28;20047;-55
2024/01/24 04:49:56;;;;;;;3.53;0.35;;;;;;;10.43;75.79;96505.03;2066621;28;20399;-55
2024/01/24 04:50:57;;;;;;;0.95;0.47;;;;;;;10.46;75.61;96452.16;2065290;28;20071;-55
2024/01/24 04:51:58;;;;;;;2.22;0.47;;;;;;;10.55;75.35;96488.13;2066336;28;20490;-55